Terminal Aerodrome Forecast
Issued by NWS

Home | Current Version | Previous Version | Graphics & Text | Print | Product List | Glossary On
Versions: 1 2 3 4 5 6 7 8 9 10 11 12 13 14 15 16 17 18
000
FTUS43 KMPX 290500
TAFRWF
TAF
KRWF 290530Z 2906/3006 33009KT P6SM SCT080 BKN250
     FM290700 36011KT P6SM SCT012 BKN060
      TEMPO 2907/2910 BKN012
     FM291000 02008KT P6SM BKN007 OVC018
     FM291500 05010KT P6SM VCSH SCT007 OVC018
     FM292100 06008KT P6SM SCT020 BKN040=

USA.gov is the U.S. government's official web portal to all federal, state and local government web resources and services.